Terminal Aerodrome Forecast
Issued by NWS Omaha/Valley, NE

Home | Current Version | Previous Version | Text Only | Print | Product List | Glossary Off
Versions: 1 2 3 4 5 6 7 8 9 10 11 12 13 14 15 16 17 18 19 20 21 22 23 24 25 26 27 28 29 30 31 32 33 34 35

000
FTUS43 KOAX 031011 AAA
TAFOFK
TAF AMD
KOFK 031011Z 0310/0406 19010KT P6SM OVC015
      TEMPO 0310/0314 21010KT 5SM -FZDZ BR BKN009
     FM031400 33012G20KT P6SM OVC020
      TEMPO 0314/0316 5SM -SN BKN012
     FM031700 34023G33KT P6SM BKN035
     FM040300 34011KT P6SM SCT040 BKN150=

USA.gov is the U.S. government's official web portal to all federal, state and local government web resources and services.